createdAt,value
2022-09-14T00:02:04.786Z,99.90
2022-09-14T00:05:26.916Z,99.90
2022-09-14T00:08:54.163Z,99.90
2022-09-14T00:12:16.581Z,99.90
2022-09-14T00:15:40.327Z,99.90
2022-09-14T00:19:06.354Z,99.90
2022-09-14T00:22:28.829Z,99.90
2022-09-14T00:25:51.676Z,99.90
2022-09-14T00:29:13.712Z,99.90
2022-09-14T00:32:35.649Z,99.90
2022-09-14T00:36:13.877Z,99.90
2022-09-14T00:39:36.772Z,99.90
2022-09-14T00:42:58.774Z,99.90
2022-09-14T00:46:20.999Z,99.90
2022-09-14T00:49:44.217Z,99.90
2022-09-14T00:53:06.533Z,99.90
2022-09-14T00:56:28.769Z,99.90
2022-09-14T00:59:52.835Z,99.90
2022-09-14T01:03:15.092Z,99.90
2022-09-14T01:06:37.027Z,99.90
2022-09-14T01:10:13.706Z,99.90
2022-09-14T01:13:44.677Z,99.90
2022-09-14T01:17:18.148Z,99.90
2022-09-14T01:21:12.387Z,99.90
2022-09-14T01:24:53.122Z,99.90
2022-09-14T01:28:28.412Z,99.90
2022-09-14T01:32:02.627Z,99.90
2022-09-14T01:35:38.285Z,99.90
2022-09-14T01:39:00.922Z,99.90
2022-09-14T01:42:25.271Z,99.90
2022-09-14T01:45:51.869Z,99.90
2022-09-14T01:49:32.266Z,99.90
2022-09-14T01:53:09.621Z,99.90
2022-09-14T01:56:38.984Z,99.90
2022-09-14T02:00:07.287Z,99.90
2022-09-14T02:03:37.342Z,99.90
2022-09-14T02:06:59.415Z,99.90
2022-09-14T02:10:22.840Z,99.90
2022-09-14T02:13:44.905Z,99.90
2022-09-14T02:17:08.375Z,99.90
2022-09-14T02:20:48.139Z,99.90
2022-09-14T02:24:12.424Z,99.90
2022-09-14T02:27:34.410Z,99.90
2022-09-14T02:31:31.576Z,99.90
2022-09-14T02:35:12.259Z,99.90
2022-09-14T02:38:45.753Z,99.90
2022-09-14T02:42:13.831Z,99.90
2022-09-14T02:45:54.573Z,99.90
2022-09-14T02:49:51.382Z,99.90
2022-09-14T02:53:55.897Z,99.90
2022-09-14T02:57:18.144Z,99.90
2022-09-14T03:00:43.828Z,99.90
2022-09-14T03:04:05.839Z,99.90
2022-09-14T03:07:27.825Z,99.90
2022-09-14T03:10:49.897Z,99.90
2022-09-14T03:14:12.273Z,99.90
2022-09-14T03:17:34.294Z,99.90
2022-09-14T03:21:05.169Z,99.90
2022-09-14T03:24:27.206Z,99.90
2022-09-14T03:27:59.037Z,99.90
2022-09-14T03:31:21.543Z,99.90
2022-09-14T03:34:43.639Z,99.90
2022-09-14T03:38:05.601Z,99.90
2022-09-14T03:41:28.588Z,99.90
2022-09-14T03:44:50.532Z,99.90
2022-09-14T03:48:15.438Z,99.90
2022-09-14T03:51:37.565Z,99.90
2022-09-14T03:54:59.522Z,99.90
2022-09-14T03:58:22.939Z,99.90
2022-09-14T04:01:45.065Z,99.90
2022-09-14T04:05:07.874Z,99.90
2022-09-14T04:08:29.872Z,99.90
2022-09-14T04:11:51.861Z,99.90
2022-09-14T04:15:13.835Z,99.90
2022-09-14T04:18:36.059Z,99.90
2022-09-14T04:21:58.139Z,99.90
2022-09-14T04:25:23.877Z,99.90
2022-09-14T04:28:47.657Z,99.90
2022-09-14T04:32:11.203Z,99.90
2022-09-14T04:35:38.310Z,99.90
2022-09-14T04:39:02.516Z,99.90
2022-09-14T04:42:24.619Z,99.90
2022-09-14T04:45:46.671Z,99.90
2022-09-14T04:49:09.457Z,99.90
2022-09-14T04:52:32.081Z,99.90
2022-09-14T04:55:58.745Z,99.90
2022-09-14T04:59:20.743Z,99.90
2022-09-14T05:02:43.089Z,99.90
2022-09-14T05:06:16.872Z,99.90
2022-09-14T05:09:38.819Z,99.90
2022-09-14T05:13:00.787Z,99.90
2022-09-14T05:16:29.312Z,99.90
2022-09-14T05:19:51.961Z,99.90
2022-09-14T05:23:14.036Z,99.90
2022-09-14T05:26:35.980Z,99.90
2022-09-14T05:29:58.722Z,99.90
2022-09-14T05:33:21.829Z,99.90
2022-09-14T05:36:44.089Z,99.90
2022-09-14T05:40:07.732Z,99.90
2022-09-14T05:43:31.089Z,99.90
2022-09-14T05:46:54.261Z,99.90
2022-09-14T05:50:17.358Z,99.90
2022-09-14T05:53:40.903Z,99.90
2022-09-14T05:57:05.109Z,99.90
2022-09-14T06:00:27.780Z,99.90
2022-09-14T06:03:53.482Z,99.90
2022-09-14T06:07:18.685Z,99.90
2022-09-14T06:10:41.150Z,99.90
2022-09-14T06:14:03.696Z,99.90
2022-09-14T06:17:25.749Z,99.90
2022-09-14T06:20:52.163Z,99.90
2022-09-14T06:24:14.180Z,99.90
2022-09-14T06:27:36.202Z,99.90
2022-09-14T06:30:58.526Z,99.90
2022-09-14T06:34:20.525Z,99.90
2022-09-14T06:37:42.434Z,99.90
2022-09-14T06:41:07.008Z,99.70
2022-09-14T06:44:28.969Z,94.90
2022-09-14T06:47:51.170Z,93.40
2022-09-14T06:51:22.177Z,90.50
2022-09-14T06:54:44.134Z,91.00
2022-09-14T06:58:07.737Z,93.50
2022-09-14T07:01:30.085Z,93.50
2022-09-14T07:04:52.460Z,94.40
2022-09-14T07:08:14.408Z,92.20
2022-09-14T07:11:37.175Z,88.50
2022-09-14T07:14:59.120Z,84.80
2022-09-14T07:18:22.314Z,85.10
2022-09-14T07:21:44.394Z,85.10
2022-09-14T07:25:07.077Z,89.90
2022-09-14T07:28:29.281Z,91.30
2022-09-14T07:31:53.985Z,91.90
2022-09-14T07:35:16.003Z,92.60
2022-09-14T07:38:53.847Z,94.20
2022-09-14T07:42:15.959Z,93.80
2022-09-14T07:45:39.697Z,93.50
2022-09-14T07:49:03.147Z,93.40
2022-09-14T07:52:25.210Z,93.10
2022-09-14T07:55:47.368Z,93.80
2022-09-14T08:02:58.056Z,92.00
2022-09-14T08:06:22.569Z,91.80
2022-09-14T08:09:45.848Z,88.70
2022-09-14T08:13:09.116Z,90.40
2022-09-14T08:16:32.793Z,90.10
2022-09-14T08:19:55.733Z,86.40
2022-09-14T08:23:17.663Z,85.70
2022-09-14T08:26:40.860Z,88.20
2022-09-14T08:30:03.504Z,90.40
2022-09-14T08:33:27.038Z,90.00
2022-09-14T08:36:51.140Z,88.90
2022-09-14T08:40:14.807Z,88.10
2022-09-14T08:43:40.232Z,87.90
2022-09-14T08:47:09.205Z,84.10
2022-09-14T08:50:34.741Z,82.50
2022-09-14T08:54:01.879Z,84.50
2022-09-14T08:57:52.045Z,81.90
2022-09-14T09:01:26.266Z,85.00
2022-09-14T09:05:26.188Z,85.80
2022-09-14T09:09:14.129Z,82.90
2022-09-14T09:12:50.945Z,82.20
2022-09-14T09:16:18.659Z,84.10
2022-09-14T09:20:07.216Z,85.90
2022-09-14T09:23:32.176Z,89.10
2022-09-14T09:26:54.576Z,87.60
2022-09-14T09:30:17.264Z,87.60
2022-09-14T09:33:39.496Z,89.90
2022-09-14T09:37:17.525Z,90.40
2022-09-14T09:40:45.022Z,91.00
2022-09-14T09:44:11.896Z,93.70
2022-09-14T09:47:41.148Z,94.80
2022-09-14T09:51:24.355Z,91.80
2022-09-14T09:54:54.297Z,89.00
2022-09-14T09:58:33.465Z,85.20
2022-09-14T10:01:57.715Z,84.80
2022-09-14T10:05:28.959Z,82.60
2022-09-14T10:08:53.890Z,80.30
2022-09-14T10:12:17.034Z,86.20
2022-09-14T10:15:40.921Z,80.80
2022-09-14T10:19:03.618Z,75.30
2022-09-14T10:22:35.097Z,72.70
2022-09-14T10:26:19.134Z,72.90
2022-09-14T10:29:46.506Z,75.00
2022-09-14T10:33:18.994Z,73.10
2022-09-14T10:36:51.320Z,70.50
2022-09-14T10:40:20.395Z,71.70
2022-09-14T10:44:01.263Z,71.90
2022-09-14T10:48:06.375Z,76.00
2022-09-14T10:51:58.134Z,71.40
2022-09-14T10:56:01.562Z,78.50
2022-09-14T10:59:47.487Z,74.60
2022-09-14T11:03:46.118Z,71.90
2022-09-14T11:07:30.980Z,73.00
2022-09-14T11:11:24.019Z,74.90
2022-09-14T11:15:17.988Z,75.60
2022-09-14T11:18:53.992Z,71.40
2022-09-14T11:22:34.396Z,72.70
2022-09-14T11:26:02.687Z,75.40
2022-09-14T11:29:46.689Z,74.80
2022-09-14T11:33:20.420Z,75.30
2022-09-14T11:36:51.111Z,73.60
2022-09-14T11:40:35.068Z,72.60
2022-09-14T11:44:03.965Z,69.30
2022-09-14T11:47:29.232Z,66.40
2022-09-14T11:51:23.024Z,67.10
2022-09-14T11:54:47.092Z,69.40
2022-09-14T11:58:24.152Z,69.00
2022-09-14T12:01:46.220Z,68.10
2022-09-14T12:05:08.313Z,72.00
2022-09-14T12:08:33.152Z,73.30
2022-09-14T12:11:58.637Z,78.10
2022-09-14T12:15:26.694Z,72.90
2022-09-14T12:18:56.578Z,72.40
2022-09-14T12:22:38.687Z,70.70
2022-09-14T12:26:06.735Z,68.60
2022-09-14T12:29:34.419Z,67.80
2022-09-14T12:32:57.047Z,69.90
2022-09-14T12:36:27.357Z,70.80
2022-09-14T12:40:24.412Z,73.10
2022-09-14T12:43:49.548Z,69.10
2022-09-14T12:47:28.683Z,71.10
2022-09-14T12:50:53.016Z,69.90
2022-09-14T12:54:49.209Z,72.10
2022-09-14T12:58:41.934Z,69.40
2022-09-14T13:02:23.014Z,69.10
2022-09-14T13:05:46.026Z,69.70
2022-09-14T13:09:21.187Z,69.40
2022-09-14T13:12:48.980Z,68.90
2022-09-14T13:16:17.731Z,69.00
2022-09-14T13:19:39.952Z,70.20
2022-09-14T13:23:03.333Z,69.90
2022-09-14T13:26:29.956Z,73.00
2022-09-14T13:30:02.817Z,72.80
2022-09-14T13:33:26.503Z,70.10
2022-09-14T13:36:49.837Z,72.70
2022-09-14T13:40:17.162Z,69.80
2022-09-14T13:43:41.966Z,70.00
2022-09-14T13:47:06.878Z,76.50
2022-09-14T13:50:30.113Z,75.50
2022-09-14T13:53:58.025Z,74.40
2022-09-14T13:57:23.296Z,71.40
2022-09-14T14:01:02.331Z,70.30
2022-09-14T14:04:37.911Z,70.10
2022-09-14T14:08:02.352Z,72.70
2022-09-14T14:11:45.899Z,73.80
2022-09-14T14:15:28.967Z,72.60
2022-09-14T14:18:56.550Z,75.70
2022-09-14T14:22:31.766Z,73.70
2022-09-14T14:26:06.029Z,79.80
2022-09-14T14:29:28.046Z,75.50
2022-09-14T14:32:55.207Z,75.80
2022-09-14T14:36:19.993Z,77.50
2022-09-14T14:39:44.386Z,76.70
2022-09-14T14:43:18.712Z,78.80
2022-09-14T14:46:42.717Z,78.10
2022-09-14T14:50:13.343Z,79.20
2022-09-14T14:53:35.828Z,79.10
2022-09-14T14:56:58.464Z,79.40
2022-09-14T15:00:24.998Z,78.50
2022-09-14T15:03:48.010Z,80.30
2022-09-14T15:07:10.282Z,82.60
2022-09-14T15:10:32.594Z,83.60
2022-09-14T15:13:55.441Z,83.30
2022-09-14T15:17:19.180Z,86.10
2022-09-14T15:20:42.224Z,87.80
2022-09-14T15:24:05.262Z,86.90
2022-09-14T15:27:27.546Z,86.90
2022-09-14T15:30:50.320Z,89.80
2022-09-14T15:34:12.874Z,90.00
2022-09-14T15:37:35.372Z,91.10
2022-09-14T15:40:57.676Z,89.70
2022-09-14T15:44:20.254Z,91.70
2022-09-14T15:47:44.740Z,91.60
2022-09-14T15:51:12.036Z,92.90
2022-09-14T15:54:37.428Z,95.40
2022-09-14T15:58:00.323Z,99.90
2022-09-14T16:01:23.459Z,99.90
2022-09-14T16:04:47.175Z,99.90
2022-09-14T16:08:09.302Z,99.90
2022-09-14T16:11:32.233Z,99.90
2022-09-14T16:14:55.629Z,99.90
2022-09-14T16:18:18.284Z,99.90
2022-09-14T16:21:41.963Z,99.90
2022-09-14T16:25:04.781Z,99.90
2022-09-14T16:28:28.370Z,99.90
2022-09-14T16:31:52.286Z,99.90
2022-09-14T16:35:16.767Z,99.90
2022-09-14T16:38:41.387Z,99.90
2022-09-14T16:42:04.211Z,99.90
2022-09-14T16:45:27.294Z,99.90
2022-09-14T16:48:50.823Z,99.90
2022-09-14T16:52:12.878Z,99.90
2022-09-14T16:55:35.323Z,99.90
2022-09-14T16:58:59.136Z,99.90
2022-09-14T17:02:21.353Z,99.90
2022-09-14T17:05:43.418Z,99.90
2022-09-14T17:09:14.756Z,99.90
2022-09-14T17:12:36.741Z,99.90
2022-09-14T17:16:07.146Z,99.90
2022-09-14T17:19:29.349Z,99.90
2022-09-14T17:22:51.653Z,99.90
2022-09-14T17:26:15.821Z,99.90
2022-09-14T17:29:40.334Z,99.90
2022-09-14T17:33:02.553Z,99.90
2022-09-14T17:36:25.355Z,99.90
2022-09-14T17:39:48.058Z,99.90
2022-09-14T17:43:11.559Z,99.90
2022-09-14T17:46:35.892Z,99.90
2022-09-14T17:50:00.565Z,99.90
2022-09-14T17:53:23.430Z,99.90
2022-09-14T17:56:46.135Z,99.90
2022-09-14T18:00:09.512Z,99.90
2022-09-14T18:03:32.082Z,99.90
2022-09-14T18:06:54.523Z,99.90
2022-09-14T18:10:17.798Z,99.90
2022-09-14T18:13:44.863Z,99.90
2022-09-14T18:17:07.104Z,99.90
2022-09-14T18:20:29.122Z,99.90
2022-09-14T18:23:52.694Z,99.90
2022-09-14T18:27:14.933Z,99.90
2022-09-14T18:30:41.678Z,99.90
2022-09-14T18:34:05.702Z,99.90
2022-09-14T18:37:27.976Z,99.90
2022-09-14T18:40:50.406Z,99.90
2022-09-14T18:44:15.301Z,99.90
2022-09-14T18:47:37.328Z,99.90
2022-09-14T18:51:04.585Z,99.90
2022-09-14T18:54:27.697Z,99.90
2022-09-14T18:57:51.235Z,99.90
2022-09-14T19:01:15.264Z,99.90
2022-09-14T19:04:39.267Z,99.90
2022-09-14T19:08:02.268Z,99.90
2022-09-14T19:11:29.119Z,99.90
2022-09-14T19:14:51.924Z,99.90
2022-09-14T19:18:19.882Z,99.90
2022-09-14T19:21:45.738Z,99.90
2022-09-14T19:25:09.112Z,99.90
2022-09-14T19:28:32.152Z,99.90
2022-09-14T19:31:55.706Z,99.90
2022-09-14T19:35:18.989Z,99.90
2022-09-14T19:38:42.806Z,99.90
2022-09-14T19:42:06.062Z,99.90
2022-09-14T19:45:31.328Z,99.90
2022-09-14T19:48:54.841Z,99.90
2022-09-14T19:52:16.806Z,99.90
2022-09-14T19:55:39.483Z,99.90
2022-09-14T19:59:09.407Z,99.90
2022-09-14T20:02:35.933Z,99.90
2022-09-14T20:06:09.440Z,99.90
2022-09-14T20:09:33.730Z,99.90
2022-09-14T20:12:55.746Z,99.90
2022-09-14T20:16:28.800Z,99.90
2022-09-14T20:19:50.831Z,99.90
2022-09-14T20:23:12.858Z,99.90
2022-09-14T20:26:34.984Z,99.90
2022-09-14T20:29:56.952Z,99.90
2022-09-14T20:33:19.128Z,99.90
2022-09-14T20:36:41.378Z,99.90
2022-09-14T20:40:04.488Z,99.90
2022-09-14T20:43:26.721Z,99.90
2022-09-14T20:46:49.810Z,99.90
2022-09-14T20:50:11.981Z,99.90
2022-09-14T20:53:36.624Z,99.90
2022-09-14T20:57:03.501Z,99.90
2022-09-14T21:00:26.470Z,99.90
2022-09-14T21:03:50.344Z,99.90
2022-09-14T21:07:12.723Z,99.90
2022-09-14T21:10:38.302Z,99.90
2022-09-14T21:14:01.004Z,99.90
2022-09-14T21:17:23.206Z,99.90
2022-09-14T21:20:45.245Z,99.90
2022-09-14T21:24:10.426Z,99.90
2022-09-14T21:27:32.461Z,99.90
2022-09-14T21:31:07.810Z,99.90
2022-09-14T21:34:30.306Z,99.90
2022-09-14T21:37:52.357Z,99.90
2022-09-14T21:41:14.406Z,99.90
2022-09-14T21:44:37.929Z,99.90
2022-09-14T21:47:59.956Z,99.90
2022-09-14T21:51:25.210Z,99.90
2022-09-14T21:54:47.380Z,99.90
2022-09-14T21:58:09.554Z,99.90
2022-09-14T22:01:31.654Z,99.90
2022-09-14T22:04:53.901Z,99.90
2022-09-14T22:08:16.294Z,99.90
2022-09-14T22:11:39.408Z,99.90
2022-09-14T22:15:01.414Z,99.90
2022-09-14T22:18:23.497Z,99.90
2022-09-14T22:21:46.341Z,99.90
2022-09-14T22:25:08.643Z,99.90
2022-09-14T22:28:31.016Z,99.90
2022-09-14T22:31:53.070Z,99.90
2022-09-14T22:35:15.074Z,99.90
2022-09-14T22:38:37.176Z,99.90
2022-09-14T22:41:59.378Z,99.90
2022-09-14T22:45:21.431Z,99.90
2022-09-14T22:48:43.629Z,99.90
2022-09-14T22:52:05.694Z,99.90
2022-09-14T22:55:28.699Z,99.90
2022-09-14T22:58:51.129Z,99.90
2022-09-14T23:02:13.402Z,99.90
2022-09-14T23:05:37.679Z,99.90
2022-09-14T23:09:00.604Z,99.90
2022-09-14T23:12:22.611Z,99.90
2022-09-14T23:15:44.897Z,99.90
2022-09-14T23:19:07.123Z,99.90
2022-09-14T23:22:29.145Z,99.90
2022-09-14T23:25:51.091Z,99.90
2022-09-14T23:29:15.807Z,99.90
2022-09-14T23:32:37.843Z,99.90
2022-09-14T23:36:00.081Z,99.90
2022-09-14T23:39:22.068Z,99.90
2022-09-14T23:42:44.410Z,99.90
2022-09-14T23:46:06.537Z,99.90
2022-09-14T23:49:28.815Z,99.90
2022-09-14T23:52:50.844Z,99.90
2022-09-14T23:56:13.379Z,99.90
2022-09-14T23:59:35.364Z,99.90
